Terminal Aerodrome Forecast
Issued by NWS State College, PA

Home | Current Version | Previous Version | Text Only | Print | Product List | Glossary On
Versions: 1 2 3 4 5 6 7 8 9 10 11 12 13 14 15 16 17 18 19 20 21 22 23 24 25 26 27 28 29 30 31 32 33 34 35 36 37 38 39 40 41 42 43 44 45 46 47 48 49 50
000
FTUS41 KCTP 212339
TAFIPT
TAF
KIPT 212339Z 2200/2224 12003KT P6SM VCTS BKN050CB
      TEMPO 2200/2201 5SM -TSRA BKN040CB
     FM220100 VRB03KT P6SM SCT250
     FM220600 VRB03KT 4SM BR SCT005
     FM221300 20007KT P6SM SCT040
     FM221600 23011KT P6SM VCSH SCT050
     FM221900 23012G22KT P6SM VCTS BKN040CB=

USA.gov is the U.S. government's official web portal to all federal, state and local government web resources and services.